Latest Weather Observations for Bushy Park

IDT60801

Issued at 3:35 am EST Saturday 23 August 2014 (issued every 30 minutes, with the page automatically refreshed every 10 minutes)

About weather observations | Map of weather stations | Latest weather observations for TAS | Other Formats
Station Details ID: 095003 Name: BUSHY PARK (BUSHY PARK ESTATES) Lat: -42.71 Lon: 146.90 Height: 27.0 m
Data from the previous 72 hours. | See also: Recent months at Bushy Park
Date/Time
EST
Temp
°C
App
Temp
°C
Dew
Point
Rel
Hum
%
Delta-T
°C
Wind Press
QNH
hPa
Press
MSL
hPa
Rain
since 9 am
mm
Dir
 
Spd
km/h
Gust
km/h
Spd
kts
Gust
kts
23/03:30am 0.0 - - - - NW 7 9 4 5 - - 0.2
23/03:00am 0.2 - - - - NNW 7 7 4 4 - - 0.2
23/02:30am 0.3 - - - - WNW 6 9 3 5 - - 0.2
23/02:00am 0.4 - - - - SSW 0 0 0 0 - - 0.2
23/01:30am 0.8 -1.1 0.5 98 0.1 CALM 0 0 0 0 - - 0.2
23/01:00am 1.4 -0.9 0.6 94 0.3 N 2 7 1 4 - - 0.2
23/12:30am 1.5 -0.3 1.0 96 0.2 CALM 0 0 0 0 - - 0.2
23/12:00am 1.9 -0.7 1.1 94 0.3 NW 4 6 2 3 - - 0.2
 
Date/Time
EST
Temp
°C
App
Temp
°C
Dew
Point
Rel
Hum
%
Delta-T
°C
Wind Press
QNH
hPa
Press
MSL
hPa
Rain
since 9 am
mm
Dir
 
Spd
km/h
Gust
km/h
Spd
kts
Gust
kts
22/11:30pm 2.4 0.7 1.6 94 0.3 CALM 0 0 0 0 - - 0.2
22/11:00pm 2.5 -0.4 1.7 94 0.3 SW 6 7 3 4 - - 0.2
22/10:30pm 3.0 1.4 2.5 96 0.2 ESE 0 0 0 0 - - 0.2
22/10:00pm 3.4 0.2 2.9 97 0.2 SSW 9 11 5 6 - - 0.2
22/09:30pm 4.0 2.1 3.0 93 0.4 N 2 6 1 3 - - 0.2
22/09:00pm 4.6 2.1 3.6 93 0.4 W 6 9 3 5 - - 0.2
22/08:30pm 5.2 2.6 4.0 92 0.5 WSW 7 13 4 7 - - 0.2
22/08:00pm 5.9 3.0 4.8 93 0.5 WSW 9 13 5 7 - - 0.2
22/07:30pm 6.7 3.8 4.9 88 0.8 SW 9 13 5 7 - - 0.2
22/07:00pm 7.9 5.7 5.5 85 1.1 SW 6 11 3 6 - - 0.2
22/06:30pm 9.7 8.6 6.7 81 1.4 ESE 2 6 1 3 - - 0.2
22/06:00pm 10.3 9.3 7.2 81 1.5 N 2 9 1 5 - - 0.2
22/05:30pm 10.5 9.4 6.7 77 1.8 N 2 7 1 4 - - 0.2
22/05:00pm 12.4 10.3 6.8 68 2.7 N 7 9 4 5 - - 0.2
22/04:30pm 14.4 12.4 6.9 60 3.7 NE 7 11 4 6 - - 0.2
22/04:00pm 16.3 14.1 6.1 51 5.0 ENE 7 11 4 6 - - 0.2
22/03:30pm 15.9 13.7 6.3 53 4.7 SE 7 9 4 5 - - 0.0
22/03:00pm 15.2 13.0 6.2 55 4.3 SE 7 11 4 6 - - 0.0
22/02:30pm 14.8 11.5 6.6 58 4.0 SSE 13 15 7 8 - - 0.0
22/02:00pm 14.8 11.3 7.1 60 3.8 SSE 15 19 8 10 - - 0.0
22/01:30pm 15.4 12.4 7.6 59 3.9 SE 13 17 7 9 - - 0.0
22/01:00pm 13.1 10.7 7.2 67 2.9 ESE 9 13 5 7 - - 0.0
22/12:30pm 11.4 9.2 6.4 71 2.4 SSE 7 11 4 6 - - 0.0
22/12:00pm 9.3 7.1 5.4 76 1.8 E 6 7 3 4 - - 0.0
22/11:30am 7.6 5.6 4.2 79 1.5 SSE 4 7 2 4 - - 0.0
22/11:00am 5.7 3.1 4.1 89 0.7 E 7 9 4 5 - - 0.0
22/10:30am 4.1 1.3 3.1 93 0.4 NE 7 9 4 5 - - 0.0
22/10:00am 2.9 0.0 2.4 96 0.2 NNE 7 9 4 5 - - 0.0
22/09:30am 1.9 -1.0 1.6 98 0.1 NE 6 7 3 4 - - 0.0
22/09:00am 1.6 - - - - NNE 6 7 3 4 - - 0.0
22/08:30am 0.6 - - - - NE 2 7 1 4 - - 0.0
22/08:00am 0.3 - - - - CALM 0 0 0 0 - - 0.0
22/07:30am -0.3 - - - - CALM 0 0 0 0 - - 0.0
22/07:00am -0.6 - - - - CALM 0 0 0 0 - - 0.0
22/06:30am -0.5 - - - - CALM 0 0 0 0 - - 0.0
22/06:00am -0.6 - - - - NE 0 0 0 0 - - 0.0
22/05:30am -0.7 - - - - CALM 0 0 0 0 - - 0.0
22/05:00am -0.4 - - - - CALM 0 0 0 0 - - 0.0
22/04:30am 0.0 - - - - CALM 0 7 0 4 - - 0.0
22/04:00am 0.2 - - - - CALM 0 7 0 4 - - 0.0
22/03:30am 0.2 - - - - CALM 0 0 0 0 - - 0.0
22/03:00am 0.4 -1.5 0.4 100 0.0 CALM 0 0 0 0 - - 0.0
22/02:30am 0.4 - - - - CALM 0 0 0 0 - - 0.0
22/02:00am 0.2 - - - - CALM 0 0 0 0 - - 0.0
22/01:30am -0.1 - - - - CALM 0 0 0 0 - - 0.0
22/01:00am -0.1 - - - - CALM 0 0 0 0 - - 0.0
22/12:30am 0.3 - - - - CALM 0 0 0 0 - - 0.0
22/12:00am 0.7 -1.3 0.2 96 0.2 CALM 0 0 0 0 - - 0.0
 
Date/Time
EST
Temp
°C
App
Temp
°C
Dew
Point
Rel
Hum
%
Delta-T
°C
Wind Press
QNH
hPa
Press
MSL
hPa
Rain
since 9 am
mm
Dir
 
Spd
km/h
Gust
km/h
Spd
kts
Gust
kts
21/11:30pm 0.8 -1.1 0.3 96 0.2 CALM 0 0 0 0 - - 0.0
21/11:00pm 1.2 -0.7 0.7 96 0.2 CALM 0 0 0 0 - - 0.0
21/10:30pm 1.6 -0.2 1.1 96 0.2 CALM 0 0 0 0 - - 0.0
21/10:00pm 1.8 0.0 1.3 96 0.2 CALM 0 0 0 0 - - 0.0
21/09:30pm 2.1 -0.8 1.3 94 0.3 SSW 6 7 3 4 - - 0.0
21/09:00pm 2.7 1.1 2.2 96 0.2 CALM 0 0 0 0 - - 0.0
21/08:30pm 3.1 1.5 2.4 95 0.3 CALM 0 0 0 0 - - 0.0
21/08:00pm 3.9 2.4 2.9 93 0.4 CALM 0 4 0 2 - - 0.0
21/07:30pm 4.3 1.7 3.3 93 0.4 SW 6 7 3 4 - - 0.0
21/07:00pm 5.0 3.6 3.6 91 0.6 CALM 0 6 0 3 - - 0.0
21/06:30pm 6.4 4.5 4.8 89 0.7 NW 4 9 2 5 - - 0.0
21/06:00pm 7.7 6.6 5.0 83 1.2 CALM 0 6 0 3 - - 0.0
21/05:30pm 9.3 7.8 5.1 75 1.9 SW 2 6 1 3 - - 0.0
21/05:00pm 11.0 8.6 5.1 67 2.7 SW 7 7 4 4 - - 0.0
21/04:30pm 14.1 13.0 5.2 55 4.2 CALM 0 0 0 0 - - 0.0
21/04:00pm 13.9 11.5 4.4 52 4.4 S 6 7 3 4 - - 0.0
21/03:30pm 13.6 11.1 4.8 55 4.1 S 7 7 4 4 - - 0.0
21/03:00pm 13.4 11.2 5.1 57 3.9 S 6 7 3 4 - - 0.0
21/02:30pm 12.7 11.1 4.7 58 3.7 E 2 9 1 5 - - 0.0
21/02:00pm 10.9 8.0 4.5 64 2.9 ENE 9 13 5 7 - - 0.0
21/01:30pm 10.8 8.3 4.9 67 2.7 N 7 11 4 6 - - 0.0
21/01:00pm 10.0 7.4 4.4 68 2.5 ENE 7 11 4 6 - - 0.0
21/12:30pm 9.4 6.1 4.7 72 2.1 NNE 11 15 6 8 - - 0.0
21/12:00pm 8.5 5.6 4.5 76 1.8 N 9 13 5 7 - - 0.0
21/11:30am 7.8 4.8 4.2 78 1.6 N 9 11 5 6 - - 0.0
21/11:00am 6.8 4.1 3.8 81 1.3 N 7 11 4 6 - - 0.0
21/10:30am 6.1 4.3 3.3 82 1.2 NNE 2 6 1 3 - - 0.0
21/10:00am 5.1 3.6 2.9 86 0.9 CALM 0 6 0 3 - - 0.0
21/09:30am 4.5 1.6 2.8 89 0.7 N 7 9 4 5 - - 0.0
21/09:00am 4.0 1.1 2.5 90 0.6 N 7 9 4 5 - - 0.0
21/08:30am 3.5 0.7 2.3 92 0.5 N 6 7 3 4 - - 0.0
21/08:00am 2.9 0.9 2.1 94 0.3 N 2 7 1 4 - - 0.0
21/07:30am 2.4 0.7 1.6 94 0.3 CALM 0 0 0 0 - - 0.0
21/07:00am 1.9 -1.2 1.4 96 0.2 NNW 7 9 4 5 - - 0.0
21/06:30am 1.5 -1.7 1.0 96 0.2 N 7 9 4 5 - - 0.0
21/06:00am 1.1 -1.2 0.6 96 0.2 N 2 6 1 3 - - 0.0
21/05:30am 0.6 - - - - N 7 9 4 5 - - 0.0
21/05:00am 0.0 - - - - N 7 9 4 5 - - 0.0
21/04:30am -0.4 - - - - NNW 6 7 3 4 - - 0.0
21/04:00am -0.9 - - - - CALM 0 0 0 0 - - 0.0
21/03:30am -0.8 - - - - NNE 6 7 3 4 - - 0.0
21/03:00am -0.8 - - - - NNW 9 11 5 6 - - 0.0
21/02:30am -0.5 - - - - NNW 6 7 3 4 - - 0.0
21/02:00am -0.4 - - - - CALM 0 0 0 0 - - 0.0
21/01:30am 0.2 - - - - N 7 9 4 5 - - 0.0
21/01:00am 0.2 - - - - WSW 7 9 4 5 - - 0.0
21/12:30am 0.8 -1.1 0.3 96 0.2 CALM 0 0 0 0 - - 0.0
21/12:00am 0.8 -1.1 0.3 96 0.2 CALM 0 0 0 0 - - 0.0
 
Date/Time
EST
Temp
°C
App
Temp
°C
Dew
Point
Rel
Hum
%
Delta-T
°C
Wind Press
QNH
hPa
Press
MSL
hPa
Rain
since 9 am
mm
Dir
 
Spd
km/h
Gust
km/h
Spd
kts
Gust
kts
20/11:30pm 1.6 -1.4 1.1 96 0.2 S 6 9 3 5 - - 0.0
20/11:00pm 1.7 -0.1 1.2 96 0.2 CALM 0 0 0 0 - - 0.0
20/10:30pm 2.3 -1.6 1.3 93 0.4 SW 11 13 6 7 - - 0.0
20/10:00pm 2.6 0.9 1.8 94 0.3 CALM 0 0 0 0 - - 0.0
20/09:30pm 3.1 -0.3 2.1 93 0.4 SW 9 13 5 7 - - 0.0
20/09:00pm 3.9 1.1 2.9 93 0.4 SW 7 11 4 6 - - 0.0
20/08:30pm 4.9 1.4 3.5 91 0.6 SW 11 13 6 7 - - 0.0
20/08:00pm 5.4 2.0 3.8 89 0.7 SW 11 17 6 9 - - 0.0
20/07:30pm 6.0 4.8 4.6 91 0.6 CALM 0 4 0 2 - - 0.0
20/07:00pm 6.4 5.2 4.8 89 0.7 CALM 0 6 0 3 - - 0.0
20/06:30pm 7.3 5.8 5.1 86 1.0 E 2 7 1 4 - - 0.0
20/06:00pm 8.2 7.1 5.3 82 1.3 CALM 0 4 0 2 - - 0.0
20/05:30pm 9.5 - 5.1 74 2.0 - - - - - - - 0.0
20/05:00pm 11.4 9.9 5.1 65 2.9 NE 2 7 1 4 - - 0.0
20/04:30pm 13.9 12.0 4.7 54 4.3 N 4 9 2 5 - - 0.0
20/04:00pm 14.3 11.9 4.4 51 4.6 NE 6 9 3 5 - - 0.0
20/03:30pm 14.8 11.8 4.3 49 4.9 NNE 9 13 5 7 - - 0.0
20/03:00pm 14.4 11.5 4.6 51 4.5 NNE 9 13 5 7 - - 0.0
20/02:30pm 14.4 11.1 4.3 50 4.7 N 11 17 6 9 - - 0.0
20/02:00pm 13.8 10.9 4.8 54 4.2 NE 9 13 5 7 - - 0.0
20/01:30pm 13.5 10.6 4.4 54 4.2 NNE 9 13 5 7 - - 0.0
20/01:00pm 12.8 10.1 3.8 54 4.1 NNE 7 13 4 7 - - 0.0
20/12:30pm 13.4 10.1 4.8 56 4.0 NNE 11 15 6 8 - - 0.0
20/12:00pm 11.4 8.5 4.9 64 3.0 NE 9 13 5 7 - - 0.0
20/11:30am 11.0 8.5 4.6 64 2.9 NE 7 11 4 6 - - 0.0
20/11:00am 8.8 6.1 3.8 71 2.2 NNE 7 9 4 5 - - 0.0
20/10:30am 8.1 4.9 3.2 71 2.1 N 9 11 5 6 - - 0.0
20/10:00am 6.2 3.5 2.6 78 1.5 NE 6 7 3 4 - - 0.0
20/09:30am 4.8 1.8 2.1 83 1.1 NNE 7 9 4 5 - - 0.0
20/09:00am 2.7 0.1 0.9 88 0.7 SSE 4 7 2 4 - - 0.0
20/08:30am 0.9 -1.9 -0.5 90 0.5 NNE 4 7 2 4 - - 0.0
20/08:00am -0.6 - - - - NE 2 6 1 3 - - 0.0
20/07:30am -1.9 - - - - NW 4 7 2 4 - - 0.0
20/07:00am -2.1 - - - - NW 4 9 2 5 - - 0.0
20/06:30am -1.9 - - - - CALM 0 6 0 3 - - 0.0
20/06:00am -1.9 - - - - CALM 0 0 0 0 - - 0.0
20/05:30am -1.6 - - - - CALM 0 0 0 0 - - 0.0
20/05:00am -1.3 - - - - CALM 0 0 0 0 - - 0.0
20/04:30am -1.1 - - - - CALM 0 0 0 0 - - 0.0
20/04:00am -1.1 - - - - CALM 0 0 0 0 - - 0.0

Other Formats:

Comma delimited format used in spreadsheet applications
http://www.bom.gov.au/fwo/IDT60801/IDT60801.94964.axf

JavaScript Object Notation format (JSON) in row-major order
http://www.bom.gov.au/fwo/IDT60801/IDT60801.94964.json